Share

Pago Pago, AS

Bradshaw Army Air Field (PHSF) Elev 6191 ft | 19.76 °N, 155.55 °W | Change Station

Current weather conditions updated 27 minutes ago

Scattered Clouds
Scattered Clouds
58 °F
Feels Like 58 °F
N
8
Wind Variable Wind from West
Sunrise 6:30 AM
Sunset 6:12 PM
Moon Waning Gibbous

Tomorrow is forecast to be nearly the same temperature as today. Scattered thunderstorms possible tomorrow night.

Pressure 30.06 in
Visibility 12.0 miles
Clouds Scattered Clouds 18000 ft
Dew Point 54 °F
Humidity 87%
Rainfall 0.00 in
Snow Depth Not available.
UV 0 out of 16
Pollen Not available.
Air Quality Not available.
Flu Activity
METAR PHSF 210356Z AUTO 26007KT 12SM SCT180 15/13 A3037 RMK AO2 SLP180 T01460125

More Conditions Fewer Conditions

Pressure 30.06 in
Visibility 12.0 miles
Clouds Scattered Clouds 18000 ft
Dew Point 54 °F
Humidity 87%
Rainfall 0.00 in
Snow Depth Not available.
UV 0 out of 16
Pollen Not available.
Air Quality Not available.
Flu Activity
METAR PHSF 210356Z AUTO 26007KT 12SM SCT180 15/13 A3037 RMK AO2 SLP180 T01460125

More Conditions Fewer Conditions

10-Day Weather Forecast

Almanac

Astronomy

Apr. 20, 2014 Rise Set
Actual Time 6:30 AM SST 6:12 PM SST
Civil Twilight 6:08 AM SST 6:34 PM SST
Nautical Twilight 5:43 AM SST 6:59 PM SST
Astronomical Twilight 5:18 AM SST 7:24 PM SST
Moon 11:29 PM SST (4/20) 11:37 AM SST (4/20)
Length of Visible Light 12h 26m
Length of Day
11h 42m
Tomorrow will be 0m 42s shorter.
Waning Gibbous, 63% of the Moon is Illuminated
Apr 21
Waning Gibbous
Apr 22
Last Quarter
Apr 29
New
May 6
First Quarter
May 14
Full

Community

  • Snowy Robin
    Snowy Robin
  • Sun Pillar and Geese
    Sun Pillar and Geese
  • Showers on the Way
    Showers on the Way
  • Easter Morning Fog
    Easter Morning Fog
  • Easter Dance
    Easter Dance

WunderPhotos

Upload Photos

1,703,556 photos uploaded!

WunderBlogs® & News

Nearby

Snow Depth

Station Depth Elevation
No new snow has been reported.

Coastal Water Temperatures

Place Temperature
No Stations Reporting

Earthquake Activity

City Distance Mag. Time & Date
No recent earthquake activity has been reported nearby.
Minimum magnitude displayed is 2.5.

Nearby Weather Stations

There are no personal weather stations in this area.

What do you think?

We're not finished. Please let us know what you like, what you don't like, and what you are still missing.